Time;durP1;ratioP1;P1;durP2;ratioP2;P2;SDS_P1;SDS_P2;PMS_P1;PMS_P2;Temp;Humidity;BMP_temperature;BMP_pressure;BME280_temperature;BME280_humidity;BME280_pressure;Samples;Min_cycle;Max_cycle;Signal;HPM_P1;HPM_P2
2022/01/11 00:01:56;;;;;;;11.27;4.95;;;;;;;;;;4991952;28;20050;-96
2022/01/11 00:04:29;;;;;;;14.50;5.23;;;;;;;;;;4990713;28;20077;-95
2022/01/11 00:07:00;;;;;;;11.80;3.85;;;;;;;;;;5011100;28;20080;-96
2022/01/11 00:09:38;;;;;;;14.18;4.47;;;;;;;;;;5036364;28;20085;-95
2022/01/11 00:12:10;;;;;;;7.78;4.20;;;;;;;;;;5004230;28;20130;-96
2022/01/11 00:14:41;;;;;;;8.70;3.92;;;;;;;;;;4996129;28;20084;-96
2022/01/11 00:17:10;;;;;;;12.93;4.20;;;;;;;;;;5020988;28;20054;-96
2022/01/11 00:19:40;;;;;;;8.20;3.85;;;;;;;;;;4995955;28;20102;-96
2022/01/11 00:22:17;;;;;;;7.25;3.60;;;;;;;;;;4996840;28;20168;-96
2022/01/11 00:24:47;;;;;;;9.88;4.55;;;;;;;;;;4995620;28;20532;-96
2022/01/11 00:27:18;;;;;;;10.48;4.63;;;;;;;;;;4995956;28;20053;-96
2022/01/11 00:30:08;;;;;;;8.40;3.13;;;;;;;;;;5042583;28;20038;-95
2022/01/11 05:38:45;;;;;;;9.65;3.85;;;;;;;;;;5087471;28;20497;-76
2022/01/11 05:41:18;;;;;;;8.07;3.92;;;;;;;;;;5091839;28;20048;-75
2022/01/11 05:44:33;;;;;;;10.73;4.22;;;;;;;;;;5068620;28;20048;-76
2022/01/11 05:47:06;;;;;;;11.03;3.70;;;;;;;;;;5007805;28;20076;-76
2022/01/11 06:13:03;;;;;;;6.05;2.28;;;;;;;;;;5035335;23;20069;-76
2022/01/11 06:15:34;;;;;;;8.77;4.10;;;;;;;;;;5029019;28;20069;-74
2022/01/11 06:18:06;;;;;;;9.38;3.78;;;;;;;;;;5030341;28;20045;-76
2022/01/11 06:21:02;;;;;;;10.33;4.07;;;;;;;;;;5029601;28;20103;-74
2022/01/11 06:23:37;;;;;;;14.02;3.90;;;;;;;;;;5032242;28;21179;-73
2022/01/11 06:26:07;;;;;;;7.97;3.40;;;;;;;;;;5028579;28;20128;-75
2022/01/11 06:28:36;;;;;;;6.82;3.55;;;;;;;;;;5032412;28;20108;-74
2022/01/11 06:31:09;;;;;;;9.13;4.35;;;;;;;;;;5025728;28;20057;-74
2022/01/11 06:33:39;;;;;;;10.00;4.53;;;;;;;;;;5010994;28;20037;-74
2022/01/11 06:36:12;;;;;;;8.85;4.30;;;;;;;;;;5019538;28;20574;-74
2022/01/11 06:38:41;;;;;;;10.10;3.88;;;;;;;;;;5014471;28;20051;-74
2022/01/11 06:41:12;;;;;;;9.15;4.07;;;;;;;;;;5032918;28;20053;-74
2022/01/11 06:43:43;;;;;;;13.90;4.32;;;;;;;;;;5029927;28;20129;-74
2022/01/11 06:46:16;;;;;;;8.73;3.97;;;;;;;;;;5021608;28;20102;-74
2022/01/11 06:48:45;;;;;;;11.82;3.80;;;;;;;;;;5048419;28;20055;-74
2022/01/11 06:51:16;;;;;;;11.98;4.55;;;;;;;;;;5031293;28;20120;-74
2022/01/11 06:53:50;;;;;;;8.82;3.05;;;;;;;;;;5030264;28;20053;-74
2022/01/11 06:56:21;;;;;;;7.65;3.58;;;;;;;;;;5048159;28;20058;-74
2022/01/11 06:58:53;;;;;;;9.97;4.13;;;;;;;;;;5031803;28;20048;-74
2022/01/11 07:01:25;;;;;;;7.85;3.20;;;;;;;;;;5049255;28;20110;-74
2022/01/11 07:04:02;;;;;;;9.27;4.35;;;;;;;;;;5028120;28;20056;-74
2022/01/11 07:06:37;;;;;;;8.27;4.22;;;;;;;;;;5033373;28;20052;-74
2022/01/11 07:09:07;;;;;;;11.20;3.90;;;;;;;;;;5048168;28;20052;-74
2022/01/11 07:11:41;;;;;;;8.07;3.70;;;;;;;;;;5033266;28;20065;-74
2022/01/11 07:14:11;;;;;;;10.82;4.72;;;;;;;;;;5030687;28;20048;-76
2022/01/11 07:16:48;;;;;;;10.23;4.22;;;;;;;;;;5022770;28;20132;-75
2022/01/11 07:19:20;;;;;;;9.48;3.50;;;;;;;;;;5032065;28;20049;-74
2022/01/11 07:21:52;;;;;;;12.13;4.75;;;;;;;;;;5032014;28;20060;-74
2022/01/11 07:24:23;;;;;;;10.30;4.27;;;;;;;;;;5028866;28;20037;-75
2022/01/11 07:26:53;;;;;;;8.00;3.38;;;;;;;;;;5031150;28;20045;-75
2022/01/11 07:29:24;;;;;;;9.38;3.42;;;;;;;;;;5049906;28;20515;-74
2022/01/11 07:31:55;;;;;;;10.00;3.72;;;;;;;;;;5025554;28;20053;-74
2022/01/11 07:34:25;;;;;;;15.07;4.53;;;;;;;;;;5029643;28;20045;-74
2022/01/11 07:36:55;;;;;;;10.77;3.90;;;;;;;;;;5048132;28;20080;-75
2022/01/11 07:39:24;;;;;;;17.83;4.72;;;;;;;;;;5031607;28;20491;-74
2022/01/11 07:41:53;;;;;;;8.27;3.92;;;;;;;;;;5050487;28;20033;-74
2022/01/11 07:44:43;;;;;;;8.20;3.25;;;;;;;;;;5050788;28;20171;-73
2022/01/11 07:47:14;;;;;;;8.70;3.65;;;;;;;;;;5019141;28;20083;-74
2022/01/11 07:49:47;;;;;;;9.80;3.30;;;;;;;;;;5008794;28;20116;-74
2022/01/11 07:52:16;;;;;;;9.15;3.42;;;;;;;;;;5013932;28;20128;-74
2022/01/11 07:54:47;;;;;;;7.85;2.78;;;;;;;;;;5011908;28;20056;-73
2022/01/11 07:57:19;;;;;;;5.82;2.95;;;;;;;;;;5005698;28;20049;-74
2022/01/11 07:59:49;;;;;;;9.48;3.30;;;;;;;;;;5028641;28;20052;-74
2022/01/11 08:02:34;;;;;;;5.53;2.80;;;;;;;;;;5027728;28;20064;-74
2022/01/11 08:05:07;;;;;;;5.30;2.53;;;;;;;;;;5010826;28;20044;-73
2022/01/11 08:07:39;;;;;;;9.23;3.78;;;;;;;;;;4995305;28;20041;-74
2022/01/11 08:10:22;;;;;;;7.40;2.92;;;;;;;;;;5011341;28;20037;-74
2022/01/11 08:12:54;;;;;;;10.70;2.78;;;;;;;;;;4990343;28;20046;-74
2022/01/11 08:15:24;;;;;;;13.10;4.17;;;;;;;;;;4987803;28;20123;-74
2022/01/11 08:17:55;;;;;;;7.13;2.15;;;;;;;;;;5042767;28;20514;-73
2022/01/11 08:20:26;;;;;;;9.25;2.53;;;;;;;;;;5030758;28;20069;-74
2022/01/11 08:22:56;;;;;;;5.53;2.10;;;;;;;;;;5026223;28;20758;-74
2022/01/11 08:25:32;;;;;;;3.88;1.98;;;;;;;;;;5029103;28;20041;-74
2022/01/11 08:28:03;;;;;;;5.40;2.20;;;;;;;;;;5026403;28;20056;-74
2022/01/11 08:30:39;;;;;;;9.93;2.83;;;;;;;;;;5023869;28;20502;-74
2022/01/11 08:33:13;;;;;;;6.70;2.50;;;;;;;;;;5023936;28;20052;-74
2022/01/11 08:35:43;;;;;;;6.25;2.55;;;;;;;;;;5016747;28;20048;-74
2022/01/11 08:38:14;;;;;;;5.22;2.25;;;;;;;;;;5021809;28;20041;-74
2022/01/11 08:40:45;;;;;;;5.03;1.93;;;;;;;;;;5017031;28;20041;-74
2022/01/11 08:43:15;;;;;;;6.22;2.50;;;;;;;;;;5022981;28;20046;-75
2022/01/11 08:45:46;;;;;;;5.47;2.22;;;;;;;;;;5023927;28;20510;-74
2022/01/11 08:48:19;;;;;;;8.32;2.25;;;;;;;;;;5027135;28;20145;-74
2022/01/11 08:50:58;;;;;;;5.78;1.90;;;;;;;;;;5008970;28;20088;-74
2022/01/11 08:56:25;;;;;;;5.68;1.90;;;;;;;;;;5027241;28;20061;-75
2022/01/11 08:58:54;;;;;;;7.45;2.42;;;;;;;;;;5029178;28;20045;-74
2022/01/11 09:01:31;;;;;;;5.57;2.75;;;;;;;;;;5015892;28;20062;-73
2022/01/11 09:04:03;;;;;;;6.97;2.17;;;;;;;;;;5008204;28;20052;-74
2022/01/11 09:06:38;;;;;;;9.60;3.67;;;;;;;;;;5009323;28;20192;-73
2022/01/11 09:09:19;;;;;;;7.47;2.03;;;;;;;;;;5024792;28;20125;-73
2022/01/11 09:11:49;;;;;;;6.60;2.55;;;;;;;;;;5010309;28;20073;-74
2022/01/11 09:14:20;;;;;;;7.50;3.10;;;;;;;;;;5012675;28;20091;-74
2022/01/11 09:16:50;;;;;;;5.18;2.92;;;;;;;;;;5007697;28;20097;-74
2022/01/11 09:19:22;;;;;;;5.33;2.43;;;;;;;;;;5009057;28;20062;-73
2022/01/11 09:21:51;;;;;;;5.57;3.05;;;;;;;;;;5010044;28;20116;-73
2022/01/11 09:24:20;;;;;;;6.07;2.30;;;;;;;;;;5013243;28;20041;-74
2022/01/11 09:26:55;;;;;;;5.18;1.77;;;;;;;;;;5019530;28;20041;-74
2022/01/11 09:29:26;;;;;;;4.43;1.73;;;;;;;;;;5009946;28;20073;-74
2022/01/11 09:31:56;;;;;;;5.93;1.57;;;;;;;;;;5006106;28;20054;-73
2022/01/11 09:34:30;;;;;;;6.80;2.38;;;;;;;;;;5002675;28;20835;-73
2022/01/11 09:37:00;;;;;;;5.70;2.58;;;;;;;;;;5003314;28;20058;-74
2022/01/11 09:39:30;;;;;;;3.97;1.70;;;;;;;;;;5006239;28;20625;-74
2022/01/11 09:42:04;;;;;;;5.00;2.30;;;;;;;;;;5013008;28;20053;-74
2022/01/11 09:44:34;;;;;;;4.73;2.17;;;;;;;;;;5025192;28;20049;-74
2022/01/11 09:47:04;;;;;;;4.65;1.88;;;;;;;;;;5007421;28;20084;-74
2022/01/11 09:49:35;;;;;;;6.15;2.20;;;;;;;;;;5013640;28;20044;-74
2022/01/11 09:52:07;;;;;;;2.97;1.33;;;;;;;;;;5006614;28;20037;-74
2022/01/11 09:54:37;;;;;;;5.85;1.42;;;;;;;;;;5009080;28;20038;-74
2022/01/11 09:57:09;;;;;;;4.90;1.50;;;;;;;;;;5004299;28;20045;-73
2022/01/11 09:59:39;;;;;;;3.15;1.60;;;;;;;;;;5008704;28;20050;-74
2022/01/11 10:02:46;;;;;;;3.53;1.77;;;;;;;;;;5032324;28;20049;-74
2022/01/11 10:05:29;;;;;;;3.35;1.20;;;;;;;;;;5027685;28;20088;-73
2022/01/11 10:08:25;;;;;;;3.92;1.38;;;;;;;;;;5028733;28;20500;-73
2022/01/11 10:10:57;;;;;;;3.10;1.40;;;;;;;;;;5025359;28;20038;-73
2022/01/11 10:13:30;;;;;;;4.90;1.20;;;;;;;;;;5009535;28;20108;-74
2022/01/11 10:16:16;;;;;;;4.18;0.98;;;;;;;;;;5005781;28;20652;-73
2022/01/11 10:18:45;;;;;;;4.53;1.50;;;;;;;;;;5011130;28;20061;-74
2022/01/11 10:21:34;;;;;;;3.92;1.30;;;;;;;;;;5021446;28;20447;-73
2022/01/11 10:24:19;;;;;;;3.57;1.30;;;;;;;;;;5019882;28;20153;-74
2022/01/11 10:26:50;;;;;;;5.78;1.98;;;;;;;;;;5019698;28;20041;-73
2022/01/11 10:29:28;;;;;;;9.02;2.10;;;;;;;;;;5027467;28;20037;-73
2022/01/11 10:32:02;;;;;;;6.95;1.30;;;;;;;;;;5019414;28;20508;-73
2022/01/11 10:34:32;;;;;;;3.28;1.23;;;;;;;;;;5008548;28;20492;-73
2022/01/11 10:37:06;;;;;;;3.43;1.23;;;;;;;;;;5022974;28;20037;-73
2022/01/11 10:39:43;;;;;;;4.03;1.05;;;;;;;;;;5024592;28;20053;-73
2022/01/11 10:42:25;;;;;;;4.03;1.25;;;;;;;;;;5026022;28;20081;-73
2022/01/11 10:44:59;;;;;;;4.03;0.90;;;;;;;;;;5025149;28;20618;-73
2022/01/11 10:47:33;;;;;;;2.92;0.98;;;;;;;;;;5022667;28;20045;-74
2022/01/11 10:50:12;;;;;;;3.57;1.23;;;;;;;;;;5012535;28;20545;-73
2022/01/11 10:52:43;;;;;;;2.50;0.85;;;;;;;;;;5020911;28;20052;-73
2022/01/11 10:55:27;;;;;;;4.95;1.80;;;;;;;;;;5021063;28;20503;-74
2022/01/11 10:58:06;;;;;;;3.13;1.02;;;;;;;;;;5008328;28;20547;-73
2022/01/11 11:00:37;;;;;;;3.67;0.85;;;;;;;;;;5020132;28;20112;-73
2022/01/11 11:03:10;;;;;;;3.50;0.90;;;;;;;;;;5024141;28;20042;-73
2022/01/11 11:06:07;;;;;;;2.85;1.02;;;;;;;;;;5020548;28;20121;-75
2022/01/11 11:08:41;;;;;;;2.33;0.63;;;;;;;;;;5024903;28;20056;-75
2022/01/11 11:11:20;;;;;;;3.03;1.00;;;;;;;;;;5017834;28;20043;-75
2022/01/11 11:14:16;;;;;;;2.38;0.98;;;;;;;;;;5050999;28;20053;-75
2022/01/11 11:16:57;;;;;;;2.37;0.70;;;;;;;;;;5028230;28;20071;-75
2022/01/11 11:19:29;;;;;;;2.88;1.02;;;;;;;;;;5033926;28;20051;-75
2022/01/11 11:22:01;;;;;;;3.10;1.33;;;;;;;;;;5016794;28;20045;-75
2022/01/11 11:24:32;;;;;;;1.88;0.52;;;;;;;;;;5050321;28;20045;-75
2022/01/11 11:27:01;;;;;;;2.20;0.65;;;;;;;;;;5040227;28;20045;-75
2022/01/11 11:29:29;;;;;;;2.17;0.50;;;;;;;;;;5051056;28;20404;-75
2022/01/11 11:32:13;;;;;;;2.38;0.77;;;;;;;;;;5045356;28;20114;-73
2022/01/11 11:35:33;;;;;;;2.72;0.63;;;;;;;;;;5034670;28;20037;-74
2022/01/11 11:38:03;;;;;;;2.38;0.70;;;;;;;;;;5035469;28;20037;-73
2022/01/11 11:40:34;;;;;;;1.80;0.50;;;;;;;;;;5050398;28;20694;-73
2022/01/11 11:43:04;;;;;;;3.83;0.63;;;;;;;;;;5048760;28;20384;-73
2022/01/11 11:45:34;;;;;;;2.28;0.65;;;;;;;;;;5047342;28;20049;-73
2022/01/11 11:48:05;;;;;;;3.35;0.75;;;;;;;;;;5034066;28;20041;-73
2022/01/11 11:50:34;;;;;;;2.15;0.63;;;;;;;;;;5051643;28;20037;-73
2022/01/11 11:53:03;;;;;;;2.78;1.15;;;;;;;;;;5038123;28;20095;-73
2022/01/11 11:55:33;;;;;;;3.73;1.40;;;;;;;;;;5033111;28;20053;-72
2022/01/11 11:58:06;;;;;;;3.95;0.68;;;;;;;;;;5036097;28;20064;-74
2022/01/11 12:00:36;;;;;;;2.38;0.60;;;;;;;;;;5049118;28;20128;-73
2022/01/11 12:03:20;;;;;;;2.42;0.60;;;;;;;;;;5034504;28;20046;-73
2022/01/11 12:05:50;;;;;;;1.65;0.40;;;;;;;;;;5052261;28;20052;-73
2022/01/11 12:08:27;;;;;;;1.57;0.47;;;;;;;;;;5055403;28;20136;-73
2022/01/11 12:10:57;;;;;;;2.40;0.47;;;;;;;;;;5061159;28;20044;-73
2022/01/11 12:13:54;;;;;;;2.53;0.90;;;;;;;;;;5053784;28;20052;-73
2022/01/11 12:16:40;;;;;;;1.15;0.40;;;;;;;;;;4987226;28;20049;-74
2022/01/11 12:19:26;;;;;;;2.70;0.70;;;;;;;;;;5037808;28;20075;-74
2022/01/11 12:22:14;;;;;;;1.63;0.63;;;;;;;;;;5038699;28;20076;-73
2022/01/11 12:24:44;;;;;;;3.80;0.70;;;;;;;;;;5057572;28;20471;-73
2022/01/11 12:27:15;;;;;;;3.22;0.80;;;;;;;;;;5063378;28;20049;-73
2022/01/11 12:29:53;;;;;;;1.83;0.57;;;;;;;;;;5053658;28;20131;-73
2022/01/11 12:32:24;;;;;;;1.42;0.30;;;;;;;;;;5050915;28;20049;-73
2022/01/11 12:34:57;;;;;;;1.43;0.40;;;;;;;;;;5051835;28;20053;-73
2022/01/11 12:37:27;;;;;;;2.63;0.47;;;;;;;;;;5039922;28;20063;-73
2022/01/11 12:40:07;;;;;;;1.85;0.43;;;;;;;;;;5036797;28;20064;-74
2022/01/11 12:42:35;;;;;;;2.10;0.68;;;;;;;;;;5058524;28;20116;-73
2022/01/11 12:47:53;;;;;;;1.40;0.30;;;;;;;;;;5036399;28;20067;-74
2022/01/11 12:50:22;;;;;;;0.90;0.20;;;;;;;;;;5033556;28;20033;-73
2022/01/11 12:52:58;;;;;;;1.35;0.30;;;;;;;;;;5053187;28;20045;-74
2022/01/11 12:55:28;;;;;;;2.65;0.68;;;;;;;;;;5051296;28;20049;-73
2022/01/11 12:57:58;;;;;;;2.90;0.50;;;;;;;;;;5050438;28;20033;-73
2022/01/11 13:00:30;;;;;;;6.67;1.27;;;;;;;;;;5045319;28;20104;-74
2022/01/11 13:03:07;;;;;;;2.30;0.80;;;;;;;;;;5051023;28;20052;-73
2022/01/11 13:05:40;;;;;;;2.75;0.40;;;;;;;;;;5051113;28;20079;-74
2022/01/11 13:08:36;;;;;;;2.00;0.70;;;;;;;;;;5052642;28;20056;-73
2022/01/11 13:11:17;;;;;;;3.30;0.50;;;;;;;;;;5055160;28;20041;-75
2022/01/11 13:13:53;;;;;;;3.07;0.70;;;;;;;;;;5008481;28;20398;-73
2022/01/11 13:16:23;;;;;;;1.95;0.47;;;;;;;;;;5010096;28;20050;-74
2022/01/11 13:18:53;;;;;;;2.45;0.65;;;;;;;;;;5010638;28;20038;-73
2022/01/11 13:21:34;;;;;;;4.60;0.70;;;;;;;;;;5014368;28;20054;-73
2022/01/11 13:26:59;;;;;;;2.00;0.60;;;;;;;;;;5013144;28;20045;-73
2022/01/11 13:29:38;;;;;;;2.63;0.68;;;;;;;;;;5010293;28;20049;-73
2022/01/11 13:32:07;;;;;;;2.05;0.50;;;;;;;;;;5007724;28;20058;-73
2022/01/11 13:34:37;;;;;;;2.50;0.77;;;;;;;;;;5007101;28;20050;-73
2022/01/11 13:37:07;;;;;;;2.00;0.47;;;;;;;;;;5013262;28;20058;-75
2022/01/11 13:39:40;;;;;;;1.47;0.40;;;;;;;;;;5006375;28;20046;-74
2022/01/11 13:42:10;;;;;;;1.67;0.32;;;;;;;;;;5010948;28;20125;-73
2022/01/11 13:44:43;;;;;;;3.25;0.65;;;;;;;;;;5015941;28;20098;-73
2022/01/11 13:47:16;;;;;;;1.38;0.30;;;;;;;;;;5012710;28;20050;-74
2022/01/11 13:49:51;;;;;;;3.58;0.70;;;;;;;;;;5013194;28;20054;-74
2022/01/11 13:52:21;;;;;;;2.63;0.80;;;;;;;;;;5013882;28;20038;-74
2022/01/11 13:55:14;;;;;;;2.17;0.50;;;;;;;;;;5014068;28;20229;-73
2022/01/11 13:58:07;;;;;;;2.17;0.80;;;;;;;;;;5014742;28;20050;-74
2022/01/11 14:00:37;;;;;;;1.70;0.50;;;;;;;;;;5014797;28;20081;-74
2022/01/11 14:03:12;;;;;;;2.00;0.60;;;;;;;;;;5008524;28;20056;-73
2022/01/11 14:05:44;;;;;;;2.80;0.73;;;;;;;;;;5017609;28;20065;-73
2022/01/11 14:08:13;;;;;;;2.15;0.60;;;;;;;;;;5013608;28;20382;-73
2022/01/11 14:10:53;;;;;;;2.55;0.90;;;;;;;;;;5015283;28;20038;-73
2022/01/11 14:13:22;;;;;;;3.58;0.88;;;;;;;;;;5049257;28;20435;-73
2022/01/11 14:15:52;;;;;;;2.70;0.60;;;;;;;;;;5052544;28;20057;-73
2022/01/11 14:18:25;;;;;;;2.10;0.57;;;;;;;;;;5055762;28;20048;-74
2022/01/11 14:21:09;;;;;;;2.97;0.60;;;;;;;;;;5056746;28;20084;-73
2022/01/11 14:23:39;;;;;;;3.95;1.15;;;;;;;;;;5065284;28;20127;-73
2022/01/11 14:26:09;;;;;;;4.78;1.00;;;;;;;;;;5060572;28;20044;-73
2022/01/11 14:28:41;;;;;;;3.20;1.10;;;;;;;;;;5070738;28;20041;-74
2022/01/11 14:31:14;;;;;;;2.97;0.97;;;;;;;;;;5072714;28;20747;-73
2022/01/11 14:33:43;;;;;;;2.10;0.73;;;;;;;;;;5077145;28;20037;-74
2022/01/11 14:36:19;;;;;;;2.15;0.80;;;;;;;;;;5059471;28;20051;-73
2022/01/11 14:38:49;;;;;;;2.03;0.65;;;;;;;;;;5075152;28;20080;-74
2022/01/11 14:41:19;;;;;;;2.15;0.50;;;;;;;;;;5059636;28;20048;-73
2022/01/11 14:43:58;;;;;;;2.33;0.80;;;;;;;;;;5086815;28;20083;-75
2022/01/11 14:46:52;;;;;;;4.75;1.05;;;;;;;;;;5069910;28;20045;-73
2022/01/11 14:49:23;;;;;;;3.42;1.23;;;;;;;;;;5055069;28;20059;-73
2022/01/11 14:51:56;;;;;;;2.50;0.77;;;;;;;;;;5070476;28;20513;-73
2022/01/11 14:54:26;;;;;;;3.85;0.98;;;;;;;;;;5078156;28;20036;-73
2022/01/11 14:56:56;;;;;;;3.53;1.00;;;;;;;;;;5074254;28;20124;-74
2022/01/11 14:59:26;;;;;;;3.55;1.50;;;;;;;;;;5049546;28;20051;-73
2022/01/11 15:01:57;;;;;;;3.45;1.00;;;;;;;;;;5070163;28;20048;-73
2022/01/11 15:04:29;;;;;;;2.60;0.93;;;;;;;;;;5072235;28;20047;-76
2022/01/11 15:07:00;;;;;;;3.63;0.82;;;;;;;;;;5079107;28;20214;-73
2022/01/11 15:09:31;;;;;;;1.97;0.73;;;;;;;;;;5073762;28;20075;-73
2022/01/11 15:12:07;;;;;;;2.25;0.60;;;;;;;;;;5072907;28;20110;-73
2022/01/11 15:14:39;;;;;;;3.15;0.60;;;;;;;;;;5057160;28;20060;-73
2022/01/11 15:17:08;;;;;;;2.42;0.70;;;;;;;;;;5087280;28;20035;-74
2022/01/11 15:19:37;;;;;;;1.75;0.60;;;;;;;;;;5057581;28;20040;-73
2022/01/11 15:22:10;;;;;;;2.73;0.70;;;;;;;;;;5076681;28;20047;-74
2022/01/11 15:24:39;;;;;;;3.78;0.57;;;;;;;;;;5074539;28;20055;-72
2022/01/11 15:27:10;;;;;;;1.77;0.50;;;;;;;;;;5072955;28;20068;-72
2022/01/11 15:29:44;;;;;;;3.72;0.93;;;;;;;;;;5073799;28;20044;-72
2022/01/11 15:32:13;;;;;;;1.92;0.40;;;;;;;;;;5055629;28;20040;-73
2022/01/11 15:35:08;;;;;;;1.70;0.47;;;;;;;;;;5051481;28;20115;-73
2022/01/11 15:37:37;;;;;;;2.42;0.52;;;;;;;;;;5059677;28;20459;-73
2022/01/11 15:40:08;;;;;;;3.05;0.80;;;;;;;;;;5074936;28;20044;-76
2022/01/11 15:42:37;;;;;;;2.58;0.88;;;;;;;;;;5056924;28;20044;-75
2022/01/11 15:45:06;;;;;;;2.53;0.75;;;;;;;;;;5073765;28;20037;-77
2022/01/11 15:47:35;;;;;;;1.30;0.50;;;;;;;;;;5073073;28;20040;-77
2022/01/11 15:52:58;;;;;;;3.63;0.75;;;;;;;;;;5056564;28;20036;-77
2022/01/11 15:55:29;;;;;;;2.17;0.70;;;;;;;;;;5075794;28;20044;-78
2022/01/11 15:57:59;;;;;;;3.78;0.95;;;;;;;;;;5071530;28;20041;-78
2022/01/11 16:00:27;;;;;;;2.53;0.73;;;;;;;;;;5078938;28;20052;-77
2022/01/11 16:02:57;;;;;;;2.35;0.60;;;;;;;;;;5069865;28;20053;-78
2022/01/11 16:05:26;;;;;;;2.10;0.65;;;;;;;;;;5082126;28;20487;-79
2022/01/11 16:07:55;;;;;;;1.65;0.50;;;;;;;;;;5087674;28;20056;-73
2022/01/11 16:13:20;;;;;;;3.00;0.80;;;;;;;;;;5050222;28;20400;-77
2022/01/11 16:15:50;;;;;;;3.60;0.82;;;;;;;;;;5068559;28;20044;-77
2022/01/11 16:18:19;;;;;;;2.05;0.68;;;;;;;;;;5065254;28;20051;-77
2022/01/11 16:20:48;;;;;;;1.92;0.80;;;;;;;;;;5070686;28;20056;-77
2022/01/11 16:26:12;;;;;;;2.97;0.57;;;;;;;;;;5047213;28;20044;-76
2022/01/11 16:28:42;;;;;;;4.35;0.80;;;;;;;;;;5056114;28;20056;-77
2022/01/11 16:31:11;;;;;;;2.95;0.90;;;;;;;;;;5067916;28;20040;-78
2022/01/11 16:33:42;;;;;;;1.70;0.60;;;;;;;;;;5072539;28;20071;-79
2022/01/11 16:36:12;;;;;;;3.70;1.10;;;;;;;;;;5058548;28;20036;-79
2022/01/11 16:38:42;;;;;;;2.73;0.93;;;;;;;;;;5073791;28;20064;-78
2022/01/11 16:43:59;;;;;;;3.35;0.80;;;;;;;;;;5068700;28;20055;-76
2022/01/11 16:46:28;;;;;;;2.80;1.00;;;;;;;;;;5052233;28;20043;-78
2022/01/11 16:48:57;;;;;;;2.78;1.00;;;;;;;;;;5071014;28;20483;-78
2022/01/11 16:51:25;;;;;;;3.87;1.17;;;;;;;;;;5074304;28;20043;-80
2022/01/11 16:53:54;;;;;;;4.00;0.80;;;;;;;;;;5073916;28;20475;-77
2022/01/11 16:56:25;;;;;;;5.50;1.83;;;;;;;;;;5067193;28;20053;-77
2022/01/11 16:58:56;;;;;;;5.18;1.33;;;;;;;;;;5070470;28;20048;-76
2022/01/11 17:01:31;;;;;;;3.33;1.00;;;;;;;;;;5065392;28;20115;-80
2022/01/11 17:04:45;;;;;;;3.10;1.10;;;;;;;;;;5499024;23;20041;-80
2022/01/11 17:07:32;;;;;;;6.57;1.80;;;;;;;;;;5016238;28;20034;-76
2022/01/11 17:10:02;;;;;;;3.35;1.10;;;;;;;;;;4983413;28;20069;-77
2022/01/11 17:15:40;;;;;;;3.88;1.10;;;;;;;;;;5010514;28;20117;-76
2022/01/11 17:18:09;;;;;;;2.17;1.00;;;;;;;;;;4998570;28;20132;-79
2022/01/11 17:20:39;;;;;;;2.95;0.63;;;;;;;;;;5008031;28;20058;-79
2022/01/11 17:23:08;;;;;;;2.53;1.13;;;;;;;;;;5020131;28;20093;-76
2022/01/11 17:25:37;;;;;;;2.55;0.90;;;;;;;;;;5011784;28;20637;-74
2022/01/11 17:28:06;;;;;;;2.85;0.95;;;;;;;;;;4999846;28;20050;-76
2022/01/11 17:30:35;;;;;;;3.43;1.00;;;;;;;;;;5013931;28;20053;-77
2022/01/11 17:33:05;;;;;;;2.97;1.00;;;;;;;;;;5009037;28;20090;-77
2022/01/11 17:35:38;;;;;;;3.75;1.50;;;;;;;;;;5027545;28;20073;-76
2022/01/11 17:38:08;;;;;;;4.45;1.83;;;;;;;;;;5034697;28;20054;-77
2022/01/11 17:40:38;;;;;;;3.38;1.55;;;;;;;;;;5017500;28;20065;-78
2022/01/11 17:43:07;;;;;;;3.83;1.53;;;;;;;;;;5011977;28;20068;-78
2022/01/11 17:46:00;;;;;;;6.18;1.60;;;;;;;;;;5009002;28;20046;-81
2022/01/11 17:51:33;;;;;;;2.55;1.10;;;;;;;;;;4917843;29;20051;-80
2022/01/11 17:54:02;;;;;;;3.35;1.30;;;;;;;;;;4922777;29;20059;-77
2022/01/11 17:56:31;;;;;;;3.83;1.00;;;;;;;;;;4917061;29;20123;-76
2022/01/11 17:59:00;;;;;;;3.08;1.20;;;;;;;;;;4905404;29;20072;-75
2022/01/11 18:01:30;;;;;;;2.45;1.10;;;;;;;;;;4888378;29;20140;-79
2022/01/11 18:04:21;;;;;;;3.25;1.17;;;;;;;;;;4917818;29;20052;-77
2022/01/11 18:06:52;;;;;;;2.47;1.10;;;;;;;;;;4917669;29;20039;-74
2022/01/11 18:09:22;;;;;;;2.30;0.70;;;;;;;;;;4913802;29;20094;-77
2022/01/11 18:11:53;;;;;;;4.07;0.60;;;;;;;;;;4899308;29;20048;-77
2022/01/11 18:14:41;;;;;;;3.55;1.33;;;;;;;;;;4913609;29;20052;-76
2022/01/11 18:17:11;;;;;;;4.50;1.20;;;;;;;;;;4917177;29;20470;-77
2022/01/11 18:20:27;;;;;;;4.18;1.20;;;;;;;;;;4912316;29;20100;-79
2022/01/11 18:22:57;;;;;;;4.63;1.87;;;;;;;;;;4915022;29;20060;-77
2022/01/11 18:25:27;;;;;;;2.92;1.20;;;;;;;;;;4914567;29;20048;-77
2022/01/11 18:27:56;;;;;;;2.92;1.15;;;;;;;;;;4913876;29;20052;-77
2022/01/11 18:30:35;;;;;;;3.10;1.33;;;;;;;;;;4913275;29;20050;-77
2022/01/11 18:33:22;;;;;;;4.13;1.17;;;;;;;;;;4898940;29;20104;-76
2022/01/11 18:38:46;;;;;;;3.78;1.27;;;;;;;;;;4917497;29;20468;-76
2022/01/11 18:41:15;;;;;;;6.25;1.85;;;;;;;;;;4934392;29;20055;-77
2022/01/11 18:43:43;;;;;;;7.70;2.40;;;;;;;;;;4913656;29;20127;-77
2022/01/11 18:46:13;;;;;;;6.75;2.13;;;;;;;;;;4915562;29;20115;-77
2022/01/11 18:48:41;;;;;;;5.03;1.57;;;;;;;;;;4909586;29;20046;-76
2022/01/11 18:51:12;;;;;;;9.38;1.77;;;;;;;;;;4899513;29;20456;-75
2022/01/11 18:53:43;;;;;;;4.72;2.60;;;;;;;;;;4895288;29;20050;-76
2022/01/11 18:56:14;;;;;;;5.55;1.75;;;;;;;;;;4915220;29;20048;-74
2022/01/11 18:58:45;;;;;;;4.53;1.70;;;;;;;;;;4906239;29;20495;-74
2022/01/11 19:01:39;;;;;;;4.93;2.17;;;;;;;;;;4898960;29;20047;-75
2022/01/11 19:04:08;;;;;;;4.78;1.63;;;;;;;;;;4900373;29;20052;-74
2022/01/11 19:06:37;;;;;;;3.83;1.40;;;;;;;;;;4914211;29;20117;-74
2022/01/11 19:09:12;;;;;;;4.50;1.40;;;;;;;;;;4911163;29;20403;-74
2022/01/11 19:11:42;;;;;;;4.28;2.00;;;;;;;;;;4915187;29;20040;-74
2022/01/11 19:14:11;;;;;;;5.27;1.90;;;;;;;;;;4913128;29;20059;-74
2022/01/11 19:16:40;;;;;;;4.60;1.67;;;;;;;;;;4914740;29;20040;-74
2022/01/11 19:19:09;;;;;;;4.90;1.55;;;;;;;;;;4918840;29;20059;-75
2022/01/11 19:21:39;;;;;;;15.30;5.63;;;;;;;;;;4912774;29;20107;-75
2022/01/11 19:24:07;;;;;;;9.02;3.92;;;;;;;;;;4915368;29;20440;-74
2022/01/11 19:27:08;;;;;;;7.90;2.00;;;;;;;;;;4915653;29;20036;-74
2022/01/11 19:29:37;;;;;;;6.40;2.90;;;;;;;;;;4917171;29;20047;-74
2022/01/11 19:32:07;;;;;;;6.78;2.20;;;;;;;;;;4914230;29;20047;-74
2022/01/11 19:34:37;;;;;;;5.85;2.10;;;;;;;;;;4917485;29;20517;-74
2022/01/11 19:37:06;;;;;;;5.82;2.53;;;;;;;;;;4915724;29;21423;-74
2022/01/11 19:39:35;;;;;;;7.37;2.40;;;;;;;;;;4913939;29;20048;-74
2022/01/11 19:42:06;;;;;;;7.70;3.33;;;;;;;;;;4896911;29;20131;-73
2022/01/11 19:44:35;;;;;;;5.93;2.40;;;;;;;;;;4931331;29;20075;-74
2022/01/11 19:47:04;;;;;;;5.57;2.42;;;;;;;;;;4914054;29;20048;-74
2022/01/11 19:49:34;;;;;;;3.47;2.22;;;;;;;;;;4914963;29;20123;-74
2022/01/11 19:52:05;;;;;;;4.40;2.10;;;;;;;;;;4897579;29;20049;-74
2022/01/11 19:54:34;;;;;;;4.85;2.00;;;;;;;;;;4912345;29;20179;-73
2022/01/11 19:57:05;;;;;;;6.05;2.00;;;;;;;;;;4914839;29;20518;-75
2022/01/11 19:59:34;;;;;;;6.55;2.95;;;;;;;;;;4909628;29;20087;-74
2022/01/11 20:02:04;;;;;;;5.45;2.40;;;;;;;;;;4900596;29;20059;-74
2022/01/11 20:04:33;;;;;;;7.67;3.47;;;;;;;;;;4900663;29;20645;-75
2022/01/11 20:07:08;;;;;;;3.80;1.70;;;;;;;;;;4913821;29;20051;-75
2022/01/11 20:09:37;;;;;;;6.03;2.50;;;;;;;;;;4911819;29;20056;-74
2022/01/11 20:12:09;;;;;;;5.93;2.00;;;;;;;;;;4912597;29;20099;-74
2022/01/11 20:14:38;;;;;;;2.13;0.68;;;;;;;;;;4895467;29;20045;-74
2022/01/11 20:17:07;;;;;;;2.47;0.80;;;;;;;;;;4913434;29;20040;-74
2022/01/11 20:19:37;;;;;;;3.88;1.63;;;;;;;;;;4913974;29;20054;-75
2022/01/11 20:27:10;;;;;;;4.90;1.58;;;;;;;;;;4894869;29;20055;-74
2022/01/11 20:27:45;;;;;;;33.65;11.32;;;;;;;;;;4892070;29;20046;-75
2022/01/11 20:30:16;;;;;;;10.57;3.47;;;;;;;;;;4911297;29;20044;-75
2022/01/11 20:32:46;;;;;;;9.38;4.28;;;;;;;;;;4909341;29;20036;-75
2022/01/11 20:35:15;;;;;;;7.88;4.50;;;;;;;;;;4898958;29;20092;-75
2022/01/11 20:37:44;;;;;;;7.10;3.00;;;;;;;;;;4913012;29;20048;-75
2022/01/11 20:40:19;;;;;;;5.30;2.67;;;;;;;;;;4914601;29;20048;-75
2022/01/11 20:42:49;;;;;;;7.53;3.83;;;;;;;;;;4909361;29;20491;-75
2022/01/11 20:45:18;;;;;;;4.70;2.25;;;;;;;;;;4919080;29;20056;-74
2022/01/11 20:47:47;;;;;;;4.35;2.20;;;;;;;;;;4924232;29;20028;-74
2022/01/11 20:50:44;;;;;;;5.10;2.05;;;;;;;;;;4912149;29;20121;-74
2022/01/11 20:53:16;;;;;;;5.35;2.22;;;;;;;;;;4912272;29;20135;-75
2022/01/11 20:55:46;;;;;;;4.83;1.87;;;;;;;;;;4900368;29;20052;-75
2022/01/11 20:58:16;;;;;;;5.85;2.10;;;;;;;;;;4898589;29;20055;-74
2022/01/11 21:00:46;;;;;;;6.60;2.47;;;;;;;;;;4915216;29;20048;-75
2022/01/11 21:03:16;;;;;;;4.97;2.83;;;;;;;;;;4915388;29;20070;-73
2022/01/11 21:05:46;;;;;;;4.93;2.03;;;;;;;;;;4909694;29;20095;-76
2022/01/11 21:08:15;;;;;;;5.43;1.73;;;;;;;;;;4916757;29;20055;-75
2022/01/11 21:10:44;;;;;;;4.50;2.10;;;;;;;;;;4914627;29;20104;-76
2022/01/11 21:13:13;;;;;;;3.42;1.38;;;;;;;;;;4913879;29;20059;-76
2022/01/11 21:16:07;;;;;;;3.30;1.08;;;;;;;;;;4915568;29;20107;-76
2022/01/11 21:21:43;;;;;;;4.73;1.90;;;;;;;;;;4915190;29;20593;-76
2022/01/11 21:27:06;;;;;;;4.13;1.83;;;;;;;;;;4915801;29;20044;-76
2022/01/11 21:29:35;;;;;;;6.38;2.78;;;;;;;;;;4915369;29;20048;-76